sensor_id;sensor_type;location;lat;lon;timestamp;P1;durP1;ratioP1;P2;durP2;ratioP2
39322;SDS011;25036;53.638;10.134;2022-10-31T00:00:17;25.17;;;13.80;;
39322;SDS011;25036;53.638;10.134;2022-10-31T00:01:21;18.92;;;12.93;;
39322;SDS011;25036;53.638;10.134;2022-10-31T00:02:22;29.40;;;14.30;;
39322;SDS011;25036;53.638;10.134;2022-10-31T00:03:22;17.07;;;12.80;;
39322;SDS011;25036;53.638;10.134;2022-10-31T00:04:22;25.73;;;15.63;;
39322;SDS011;25036;53.638;10.134;2022-10-31T00:05:22;28.63;;;15.73;;
39322;SDS011;25036;53.638;10.134;2022-10-31T00:06:22;25.23;;;16.30;;
39322;SDS011;25036;53.638;10.134;2022-10-31T00:07:23;21.85;;;15.20;;
39322;SDS011;25036;53.638;10.134;2022-10-31T00:08:23;25.52;;;16.63;;
39322;SDS011;25036;53.638;10.134;2022-10-31T00:09:23;24.00;;;14.73;;
39322;SDS011;25036;53.638;10.134;2022-10-31T00:10:23;27.33;;;16.17;;
39322;SDS011;25036;53.638;10.134;2022-10-31T00:11:23;21.77;;;14.68;;
39322;SDS011;25036;53.638;10.134;2022-10-31T00:12:24;22.63;;;14.23;;
39322;SDS011;25036;53.638;10.134;2022-10-31T00:13:24;24.43;;;14.80;;
39322;SDS011;25036;53.638;10.134;2022-10-31T00:14:24;24.27;;;14.37;;
39322;SDS011;25036;53.638;10.134;2022-10-31T00:15:24;20.23;;;14.30;;
39322;SDS011;25036;53.638;10.134;2022-10-31T00:16:25;21.10;;;13.93;;
39322;SDS011;25036;53.638;10.134;2022-10-31T00:17:26;21.23;;;13.93;;
39322;SDS011;25036;53.638;10.134;2022-10-31T00:18:26;21.77;;;16.37;;
39322;SDS011;25036;53.638;10.134;2022-10-31T00:19:26;21.63;;;15.43;;
39322;SDS011;25036;53.638;10.134;2022-10-31T00:20:26;23.83;;;15.00;;
39322;SDS011;25036;53.638;10.134;2022-10-31T00:21:27;18.93;;;14.57;;
39322;SDS011;25036;53.638;10.134;2022-10-31T00:22:27;22.83;;;14.98;;
39322;SDS011;25036;53.638;10.134;2022-10-31T00:23:27;27.80;;;16.60;;
39322;SDS011;25036;53.638;10.134;2022-10-31T00:24:27;24.33;;;15.40;;
39322;SDS011;25036;53.638;10.134;2022-10-31T00:25:28;25.70;;;16.30;;
39322;SDS011;25036;53.638;10.134;2022-10-31T00:26:30;25.63;;;16.13;;
39322;SDS011;25036;53.638;10.134;2022-10-31T00:27:30;30.63;;;17.23;;
39322;SDS011;25036;53.638;10.134;2022-10-31T00:28:30;17.37;;;14.37;;
39322;SDS011;25036;53.638;10.134;2022-10-31T00:29:31;24.05;;;14.80;;
39322;SDS011;25036;53.638;10.134;2022-10-31T00:30:32;20.27;;;15.20;;
39322;SDS011;25036;53.638;10.134;2022-10-31T00:31:32;22.85;;;13.98;;
39322;SDS011;25036;53.638;10.134;2022-10-31T00:32:32;22.43;;;15.03;;
39322;SDS011;25036;53.638;10.134;2022-10-31T00:33:33;19.70;;;13.43;;
39322;SDS011;25036;53.638;10.134;2022-10-31T00:34:33;21.88;;;15.93;;
39322;SDS011;25036;53.638;10.134;2022-10-31T00:35:33;18.17;;;14.50;;
39322;SDS011;25036;53.638;10.134;2022-10-31T00:36:33;19.37;;;15.00;;
39322;SDS011;25036;53.638;10.134;2022-10-31T00:37:33;21.27;;;14.30;;
39322;SDS011;25036;53.638;10.134;2022-10-31T00:38:33;17.13;;;14.13;;
39322;SDS011;25036;53.638;10.134;2022-10-31T00:39:34;20.52;;;15.02;;
39322;SDS011;25036;53.638;10.134;2022-10-31T00:40:34;18.17;;;13.43;;
39322;SDS011;25036;53.638;10.134;2022-10-31T00:41:34;17.53;;;14.53;;
39322;SDS011;25036;53.638;10.134;2022-10-31T00:42:34;17.80;;;13.93;;
39322;SDS011;25036;53.638;10.134;2022-10-31T00:43:34;18.37;;;14.80;;
39322;SDS011;25036;53.638;10.134;2022-10-31T00:44:34;19.35;;;14.63;;
39322;SDS011;25036;53.638;10.134;2022-10-31T00:45:35;18.00;;;13.23;;
39322;SDS011;25036;53.638;10.134;2022-10-31T00:46:35;18.57;;;13.83;;
39322;SDS011;25036;53.638;10.134;2022-10-31T00:47:35;16.77;;;13.57;;
39322;SDS011;25036;53.638;10.134;2022-10-31T00:48:35;19.63;;;12.90;;
39322;SDS011;25036;53.638;10.134;2022-10-31T00:49:35;17.03;;;12.97;;
39322;SDS011;25036;53.638;10.134;2022-10-31T00:50:35;21.60;;;12.97;;
39322;SDS011;25036;53.638;10.134;2022-10-31T00:51:35;17.20;;;13.57;;
39322;SDS011;25036;53.638;10.134;2022-10-31T00:52:35;17.03;;;12.70;;
39322;SDS011;25036;53.638;10.134;2022-10-31T00:53:36;19.03;;;12.83;;
39322;SDS011;25036;53.638;10.134;2022-10-31T00:54:36;14.93;;;12.83;;
39322;SDS011;25036;53.638;10.134;2022-10-31T00:55:36;16.67;;;12.60;;
39322;SDS011;25036;53.638;10.134;2022-10-31T00:56:36;17.03;;;12.67;;
39322;SDS011;25036;53.638;10.134;2022-10-31T00:57:36;15.30;;;12.47;;
39322;SDS011;25036;53.638;10.134;2022-10-31T00:58:36;15.50;;;12.10;;
39322;SDS011;25036;53.638;10.134;2022-10-31T00:59:36;19.07;;;12.80;;
39322;SDS011;25036;53.638;10.134;2022-10-31T01:00:37;18.90;;;13.20;;
39322;SDS011;25036;53.638;10.134;2022-10-31T01:01:37;14.83;;;11.53;;
39322;SDS011;25036;53.638;10.134;2022-10-31T01:02:37;17.57;;;12.20;;
39322;SDS011;25036;53.638;10.134;2022-10-31T01:03:37;15.40;;;12.23;;
39322;SDS011;25036;53.638;10.134;2022-10-31T01:04:38;15.05;;;11.38;;
39322;SDS011;25036;53.638;10.134;2022-10-31T01:05:38;16.40;;;11.97;;
39322;SDS011;25036;53.638;10.134;2022-10-31T01:06:38;20.50;;;12.63;;
39322;SDS011;25036;53.638;10.134;2022-10-31T01:07:39;24.00;;;12.27;;
39322;SDS011;25036;53.638;10.134;2022-10-31T01:08:40;13.27;;;11.15;;
39322;SDS011;25036;53.638;10.134;2022-10-31T01:09:40;14.88;;;11.70;;
39322;SDS011;25036;53.638;10.134;2022-10-31T01:10:40;17.33;;;12.57;;
39322;SDS011;25036;53.638;10.134;2022-10-31T01:11:40;15.13;;;12.03;;
39322;SDS011;25036;53.638;10.134;2022-10-31T01:12:45;14.63;;;11.20;;
39322;SDS011;25036;53.638;10.134;2022-10-31T01:13:45;16.73;;;11.35;;
39322;SDS011;25036;53.638;10.134;2022-10-31T01:14:46;14.30;;;11.70;;
39322;SDS011;25036;53.638;10.134;2022-10-31T01:15:50;13.65;;;12.07;;
39322;SDS011;25036;53.638;10.134;2022-10-31T01:16:53;16.15;;;12.35;;
39322;SDS011;25036;53.638;10.134;2022-10-31T01:17:53;15.00;;;11.70;;
39322;SDS011;25036;53.638;10.134;2022-10-31T01:18:53;14.20;;;11.40;;
39322;SDS011;25036;53.638;10.134;2022-10-31T01:19:53;16.13;;;11.83;;
39322;SDS011;25036;53.638;10.134;2022-10-31T01:20:57;16.43;;;11.97;;
39322;SDS011;25036;53.638;10.134;2022-10-31T01:21:57;16.88;;;12.13;;
39322;SDS011;25036;53.638;10.134;2022-10-31T01:22:57;17.47;;;11.83;;
39322;SDS011;25036;53.638;10.134;2022-10-31T01:23:58;15.87;;;11.77;;
39322;SDS011;25036;53.638;10.134;2022-10-31T01:24:58;16.70;;;12.05;;
39322;SDS011;25036;53.638;10.134;2022-10-31T01:25:59;16.33;;;11.33;;
39322;SDS011;25036;53.638;10.134;2022-10-31T01:26:59;23.38;;;12.77;;
39322;SDS011;25036;53.638;10.134;2022-10-31T01:27:59;18.40;;;12.03;;
39322;SDS011;25036;53.638;10.134;2022-10-31T01:29:00;15.77;;;11.63;;
39322;SDS011;25036;53.638;10.134;2022-10-31T01:30:00;16.17;;;11.57;;
39322;SDS011;25036;53.638;10.134;2022-10-31T01:31:02;13.70;;;10.73;;
39322;SDS011;25036;53.638;10.134;2022-10-31T01:32:02;15.00;;;12.15;;
39322;SDS011;25036;53.638;10.134;2022-10-31T01:33:02;15.83;;;11.27;;
39322;SDS011;25036;53.638;10.134;2022-10-31T01:34:02;15.70;;;11.80;;
39322;SDS011;25036;53.638;10.134;2022-10-31T01:35:02;15.35;;;11.98;;
39322;SDS011;25036;53.638;10.134;2022-10-31T01:37:32;15.82;;;12.00;;
39322;SDS011;25036;53.638;10.134;2022-10-31T01:38:32;14.73;;;11.97;;
39322;SDS011;25036;53.638;10.134;2022-10-31T01:39:32;14.37;;;11.47;;
39322;SDS011;25036;53.638;10.134;2022-10-31T01:40:32;13.90;;;12.03;;
39322;SDS011;25036;53.638;10.134;2022-10-31T01:41:34;18.63;;;12.23;;
39322;SDS011;25036;53.638;10.134;2022-10-31T01:42:34;18.58;;;12.25;;
39322;SDS011;25036;53.638;10.134;2022-10-31T01:44:48;15.23;;;11.40;;
39322;SDS011;25036;53.638;10.134;2022-10-31T01:45:50;16.42;;;11.65;;
39322;SDS011;25036;53.638;10.134;2022-10-31T01:46:59;19.77;;;11.65;;
39322;SDS011;25036;53.638;10.134;2022-10-31T01:48:00;14.43;;;11.27;;
39322;SDS011;25036;53.638;10.134;2022-10-31T01:49:02;15.57;;;10.77;;
39322;SDS011;25036;53.638;10.134;2022-10-31T01:50:05;18.75;;;12.75;;
39322;SDS011;25036;53.638;10.134;2022-10-31T01:51:06;13.18;;;10.80;;
39322;SDS011;25036;53.638;10.134;2022-10-31T01:52:09;13.90;;;11.07;;
39322;SDS011;25036;53.638;10.134;2022-10-31T01:53:11;14.57;;;11.27;;
39322;SDS011;25036;53.638;10.134;2022-10-31T01:54:12;13.68;;;11.98;;
39322;SDS011;25036;53.638;10.134;2022-10-31T01:55:16;19.63;;;13.63;;
39322;SDS011;25036;53.638;10.134;2022-10-31T01:56:18;15.20;;;11.60;;
39322;SDS011;25036;53.638;10.134;2022-10-31T01:57:18;13.50;;;11.43;;
39322;SDS011;25036;53.638;10.134;2022-10-31T01:58:22;20.65;;;12.18;;
39322;SDS011;25036;53.638;10.134;2022-10-31T01:59:23;15.48;;;11.40;;
39322;SDS011;25036;53.638;10.134;2022-10-31T02:00:25;15.00;;;11.02;;
39322;SDS011;25036;53.638;10.134;2022-10-31T02:01:25;17.13;;;12.37;;
39322;SDS011;25036;53.638;10.134;2022-10-31T02:02:25;16.00;;;12.00;;
39322;SDS011;25036;53.638;10.134;2022-10-31T02:03:26;17.08;;;12.80;;
39322;SDS011;25036;53.638;10.134;2022-10-31T02:04:27;14.18;;;12.48;;
39322;SDS011;25036;53.638;10.134;2022-10-31T02:05:28;19.48;;;12.77;;
39322;SDS011;25036;53.638;10.134;2022-10-31T02:06:37;14.40;;;11.05;;
39322;SDS011;25036;53.638;10.134;2022-10-31T02:07:43;17.83;;;12.27;;
39322;SDS011;25036;53.638;10.134;2022-10-31T02:08:45;16.65;;;11.27;;
39322;SDS011;25036;53.638;10.134;2022-10-31T02:09:45;16.38;;;11.18;;
39322;SDS011;25036;53.638;10.134;2022-10-31T02:10:46;17.30;;;11.43;;
39322;SDS011;25036;53.638;10.134;2022-10-31T02:11:46;14.57;;;11.45;;
39322;SDS011;25036;53.638;10.134;2022-10-31T02:12:46;19.87;;;13.70;;
39322;SDS011;25036;53.638;10.134;2022-10-31T02:13:47;15.45;;;11.45;;
39322;SDS011;25036;53.638;10.134;2022-10-31T02:14:47;17.27;;;11.68;;
39322;SDS011;25036;53.638;10.134;2022-10-31T02:15:49;16.33;;;12.13;;
39322;SDS011;25036;53.638;10.134;2022-10-31T02:16:50;16.40;;;11.82;;
39322;SDS011;25036;53.638;10.134;2022-10-31T02:17:50;17.90;;;12.23;;
39322;SDS011;25036;53.638;10.134;2022-10-31T02:18:51;19.15;;;12.73;;
39322;SDS011;25036;53.638;10.134;2022-10-31T02:19:57;17.30;;;12.98;;
39322;SDS011;25036;53.638;10.134;2022-10-31T02:21:11;19.83;;;12.15;;
39322;SDS011;25036;53.638;10.134;2022-10-31T02:23:08;17.10;;;12.00;;
39322;SDS011;25036;53.638;10.134;2022-10-31T02:25:01;20.45;;;12.57;;
39322;SDS011;25036;53.638;10.134;2022-10-31T02:27:32;18.27;;;12.40;;
39322;SDS011;25036;53.638;10.134;2022-10-31T02:30:07;19.05;;;13.32;;
39322;SDS011;25036;53.638;10.134;2022-10-31T02:31:22;20.08;;;12.95;;
39322;SDS011;25036;53.638;10.134;2022-10-31T02:35:42;18.17;;;12.83;;
39322;SDS011;25036;53.638;10.134;2022-10-31T02:36:51;18.63;;;13.38;;
39322;SDS011;25036;53.638;10.134;2022-10-31T02:39:22;18.17;;;11.95;;
39322;SDS011;25036;53.638;10.134;2022-10-31T02:40:25;20.60;;;13.70;;
39322;SDS011;25036;53.638;10.134;2022-10-31T02:41:29;19.05;;;13.63;;
39322;SDS011;25036;53.638;10.134;2022-10-31T02:42:38;16.48;;;12.75;;
39322;SDS011;25036;53.638;10.134;2022-10-31T02:43:42;17.27;;;12.43;;
39322;SDS011;25036;53.638;10.134;2022-10-31T02:47:54;21.63;;;13.43;;
39322;SDS011;25036;53.638;10.134;2022-10-31T02:48:58;17.80;;;12.10;;
39322;SDS011;25036;53.638;10.134;2022-10-31T02:50:08;16.48;;;11.90;;
39322;SDS011;25036;53.638;10.134;2022-10-31T02:51:10;20.17;;;12.65;;
39322;SDS011;25036;53.638;10.134;2022-10-31T02:52:20;21.48;;;13.35;;
39322;SDS011;25036;53.638;10.134;2022-10-31T02:53:21;17.63;;;12.90;;
39322;SDS011;25036;53.638;10.134;2022-10-31T02:54:22;19.83;;;12.97;;
39322;SDS011;25036;53.638;10.134;2022-10-31T02:56:26;17.17;;;13.40;;
39322;SDS011;25036;53.638;10.134;2022-10-31T02:57:28;18.67;;;12.80;;
39322;SDS011;25036;53.638;10.134;2022-10-31T02:58:31;18.88;;;13.57;;
39322;SDS011;25036;53.638;10.134;2022-10-31T02:59:32;19.02;;;13.35;;
39322;SDS011;25036;53.638;10.134;2022-10-31T03:00:44;19.65;;;13.68;;
39322;SDS011;25036;53.638;10.134;2022-10-31T03:01:53;20.20;;;14.27;;
39322;SDS011;25036;53.638;10.134;2022-10-31T03:03:00;19.48;;;14.18;;
39322;SDS011;25036;53.638;10.134;2022-10-31T03:04:10;19.02;;;13.68;;
39322;SDS011;25036;53.638;10.134;2022-10-31T03:07:47;20.95;;;14.90;;
39322;SDS011;25036;53.638;10.134;2022-10-31T03:08:55;16.85;;;13.10;;
39322;SDS011;25036;53.638;10.134;2022-10-31T03:10:04;19.88;;;13.48;;
39322;SDS011;25036;53.638;10.134;2022-10-31T03:11:07;21.88;;;13.85;;
39322;SDS011;25036;53.638;10.134;2022-10-31T03:12:10;20.67;;;13.52;;
39322;SDS011;25036;53.638;10.134;2022-10-31T03:13:32;19.30;;;14.30;;
39322;SDS011;25036;53.638;10.134;2022-10-31T03:14:38;18.25;;;13.77;;
39322;SDS011;25036;53.638;10.134;2022-10-31T03:15:43;21.30;;;14.30;;
39322;SDS011;25036;53.638;10.134;2022-10-31T03:16:48;17.40;;;13.63;;
39322;SDS011;25036;53.638;10.134;2022-10-31T03:19:08;23.38;;;14.30;;
39322;SDS011;25036;53.638;10.134;2022-10-31T03:20:09;21.02;;;14.80;;
39322;SDS011;25036;53.638;10.134;2022-10-31T03:21:14;19.38;;;13.20;;
39322;SDS011;25036;53.638;10.134;2022-10-31T03:22:17;23.35;;;14.98;;
39322;SDS011;25036;53.638;10.134;2022-10-31T03:23:19;21.98;;;14.60;;
39322;SDS011;25036;53.638;10.134;2022-10-31T03:24:22;22.85;;;15.23;;
39322;SDS011;25036;53.638;10.134;2022-10-31T03:25:24;19.95;;;12.50;;
39322;SDS011;25036;53.638;10.134;2022-10-31T03:26:25;19.60;;;13.55;;
39322;SDS011;25036;53.638;10.134;2022-10-31T03:27:26;21.17;;;13.48;;
39322;SDS011;25036;53.638;10.134;2022-10-31T03:28:31;16.88;;;13.18;;
39322;SDS011;25036;53.638;10.134;2022-10-31T03:29:34;19.33;;;13.38;;
39322;SDS011;25036;53.638;10.134;2022-10-31T03:30:35;20.90;;;13.77;;
39322;SDS011;25036;53.638;10.134;2022-10-31T03:31:38;19.33;;;13.55;;
39322;SDS011;25036;53.638;10.134;2022-10-31T03:32:43;23.80;;;15.48;;
39322;SDS011;25036;53.638;10.134;2022-10-31T03:33:45;18.83;;;13.38;;
39322;SDS011;25036;53.638;10.134;2022-10-31T03:34:46;18.85;;;13.85;;
39322;SDS011;25036;53.638;10.134;2022-10-31T03:35:47;19.30;;;14.82;;
39322;SDS011;25036;53.638;10.134;2022-10-31T03:36:49;18.58;;;14.02;;
39322;SDS011;25036;53.638;10.134;2022-10-31T03:37:50;18.95;;;13.57;;
39322;SDS011;25036;53.638;10.134;2022-10-31T03:38:51;22.15;;;14.52;;
39322;SDS011;25036;53.638;10.134;2022-10-31T03:39:52;19.50;;;13.98;;
39322;SDS011;25036;53.638;10.134;2022-10-31T03:40:54;18.05;;;13.52;;
39322;SDS011;25036;53.638;10.134;2022-10-31T03:41:57;19.60;;;13.82;;
39322;SDS011;25036;53.638;10.134;2022-10-31T03:43:00;19.85;;;13.63;;
39322;SDS011;25036;53.638;10.134;2022-10-31T03:44:01;19.13;;;13.20;;
39322;SDS011;25036;53.638;10.134;2022-10-31T03:45:06;20.70;;;13.57;;
39322;SDS011;25036;53.638;10.134;2022-10-31T03:46:08;16.02;;;13.27;;
39322;SDS011;25036;53.638;10.134;2022-10-31T03:47:08;18.00;;;12.75;;
39322;SDS011;25036;53.638;10.134;2022-10-31T03:48:08;19.35;;;13.10;;
39322;SDS011;25036;53.638;10.134;2022-10-31T03:49:09;19.77;;;14.02;;
39322;SDS011;25036;53.638;10.134;2022-10-31T03:50:09;21.48;;;14.23;;
39322;SDS011;25036;53.638;10.134;2022-10-31T03:51:13;20.15;;;14.68;;
39322;SDS011;25036;53.638;10.134;2022-10-31T03:53:30;21.90;;;12.75;;
39322;SDS011;25036;53.638;10.134;2022-10-31T03:54:43;16.15;;;12.40;;
39322;SDS011;25036;53.638;10.134;2022-10-31T03:56:01;18.83;;;14.80;;
39322;SDS011;25036;53.638;10.134;2022-10-31T03:57:11;21.63;;;14.52;;
39322;SDS011;25036;53.638;10.134;2022-10-31T03:58:28;20.45;;;13.73;;
39322;SDS011;25036;53.638;10.134;2022-10-31T03:59:31;20.45;;;14.48;;
39322;SDS011;25036;53.638;10.134;2022-10-31T04:00:32;21.10;;;14.45;;
39322;SDS011;25036;53.638;10.134;2022-10-31T04:01:34;21.10;;;15.38;;
39322;SDS011;25036;53.638;10.134;2022-10-31T04:02:38;19.85;;;13.60;;
39322;SDS011;25036;53.638;10.134;2022-10-31T04:03:38;19.60;;;13.80;;
39322;SDS011;25036;53.638;10.134;2022-10-31T04:04:39;18.95;;;14.18;;
39322;SDS011;25036;53.638;10.134;2022-10-31T04:05:39;20.48;;;15.13;;
39322;SDS011;25036;53.638;10.134;2022-10-31T04:06:40;21.30;;;13.38;;
39322;SDS011;25036;53.638;10.134;2022-10-31T04:07:42;23.17;;;15.02;;
39322;SDS011;25036;53.638;10.134;2022-10-31T04:08:46;23.90;;;14.65;;
39322;SDS011;25036;53.638;10.134;2022-10-31T04:09:48;17.95;;;13.18;;
39322;SDS011;25036;53.638;10.134;2022-10-31T04:10:49;19.20;;;14.25;;
39322;SDS011;25036;53.638;10.134;2022-10-31T04:11:51;20.40;;;14.57;;
39322;SDS011;25036;53.638;10.134;2022-10-31T04:12:55;23.00;;;14.65;;
39322;SDS011;25036;53.638;10.134;2022-10-31T04:13:58;18.02;;;13.68;;
39322;SDS011;25036;53.638;10.134;2022-10-31T04:14:59;17.35;;;12.90;;
39322;SDS011;25036;53.638;10.134;2022-10-31T04:16:01;21.92;;;13.95;;
39322;SDS011;25036;53.638;10.134;2022-10-31T04:17:02;21.63;;;14.40;;
39322;SDS011;25036;53.638;10.134;2022-10-31T04:18:03;19.50;;;12.93;;
39322;SDS011;25036;53.638;10.134;2022-10-31T04:19:04;20.90;;;13.43;;
39322;SDS011;25036;53.638;10.134;2022-10-31T04:20:04;20.60;;;14.70;;
39322;SDS011;25036;53.638;10.134;2022-10-31T04:21:05;19.45;;;13.75;;
39322;SDS011;25036;53.638;10.134;2022-10-31T04:22:06;20.52;;;14.40;;
39322;SDS011;25036;53.638;10.134;2022-10-31T04:23:24;21.17;;;13.13;;
39322;SDS011;25036;53.638;10.134;2022-10-31T04:24:24;19.95;;;13.18;;
39322;SDS011;25036;53.638;10.134;2022-10-31T04:25:24;21.73;;;13.87;;
39322;SDS011;25036;53.638;10.134;2022-10-31T04:26:25;19.27;;;13.83;;
39322;SDS011;25036;53.638;10.134;2022-10-31T04:27:25;19.30;;;13.88;;
39322;SDS011;25036;53.638;10.134;2022-10-31T04:28:25;22.20;;;15.27;;
39322;SDS011;25036;53.638;10.134;2022-10-31T04:29:25;22.00;;;13.93;;
39322;SDS011;25036;53.638;10.134;2022-10-31T04:30:25;22.87;;;16.53;;
39322;SDS011;25036;53.638;10.134;2022-10-31T04:31:25;22.50;;;14.87;;
39322;SDS011;25036;53.638;10.134;2022-10-31T04:32:26;25.50;;;14.87;;
39322;SDS011;25036;53.638;10.134;2022-10-31T04:33:26;20.27;;;14.98;;
39322;SDS011;25036;53.638;10.134;2022-10-31T04:34:26;20.73;;;14.57;;
39322;SDS011;25036;53.638;10.134;2022-10-31T04:35:26;21.87;;;15.27;;
39322;SDS011;25036;53.638;10.134;2022-10-31T04:36:26;23.07;;;15.90;;
39322;SDS011;25036;53.638;10.134;2022-10-31T04:37:26;21.35;;;14.18;;
39322;SDS011;25036;53.638;10.134;2022-10-31T04:38:26;22.20;;;14.83;;
39322;SDS011;25036;53.638;10.134;2022-10-31T04:39:27;19.10;;;14.97;;
39322;SDS011;25036;53.638;10.134;2022-10-31T04:40:27;23.83;;;15.07;;
39322;SDS011;25036;53.638;10.134;2022-10-31T04:41:27;23.07;;;15.10;;
39322;SDS011;25036;53.638;10.134;2022-10-31T04:42:30;23.83;;;16.40;;
39322;SDS011;25036;53.638;10.134;2022-10-31T04:43:30;27.08;;;16.98;;
39322;SDS011;25036;53.638;10.134;2022-10-31T04:44:31;25.10;;;16.20;;
39322;SDS011;25036;53.638;10.134;2022-10-31T04:45:31;28.20;;;16.77;;
39322;SDS011;25036;53.638;10.134;2022-10-31T04:46:31;28.73;;;17.87;;
39322;SDS011;25036;53.638;10.134;2022-10-31T04:47:31;28.07;;;16.63;;
39322;SDS011;25036;53.638;10.134;2022-10-31T04:48:32;24.60;;;17.25;;
39322;SDS011;25036;53.638;10.134;2022-10-31T04:49:32;26.27;;;16.87;;
39322;SDS011;25036;53.638;10.134;2022-10-31T04:50:32;25.47;;;17.07;;
39322;SDS011;25036;53.638;10.134;2022-10-31T04:51:32;23.83;;;15.20;;
39322;SDS011;25036;53.638;10.134;2022-10-31T04:52:38;33.67;;;17.73;;
39322;SDS011;25036;53.638;10.134;2022-10-31T04:53:38;30.25;;;17.48;;
39322;SDS011;25036;53.638;10.134;2022-10-31T04:54:38;28.17;;;16.93;;
39322;SDS011;25036;53.638;10.134;2022-10-31T04:55:38;25.60;;;17.40;;
39322;SDS011;25036;53.638;10.134;2022-10-31T04:56:38;26.57;;;17.40;;
39322;SDS011;25036;53.638;10.134;2022-10-31T04:57:48;24.83;;;16.87;;
39322;SDS011;25036;53.638;10.134;2022-10-31T04:58:48;32.78;;;17.45;;
39322;SDS011;25036;53.638;10.134;2022-10-31T04:59:48;30.27;;;17.03;;
39322;SDS011;25036;53.638;10.134;2022-10-31T05:00:51;26.53;;;17.53;;
39322;SDS011;25036;53.638;10.134;2022-10-31T05:01:51;27.38;;;17.63;;
39322;SDS011;25036;53.638;10.134;2022-10-31T05:02:52;23.63;;;17.03;;
39322;SDS011;25036;53.638;10.134;2022-10-31T05:03:53;33.30;;;18.55;;
39322;SDS011;25036;53.638;10.134;2022-10-31T05:04:53;28.10;;;17.60;;
39322;SDS011;25036;53.638;10.134;2022-10-31T05:05:53;27.30;;;18.92;;
39322;SDS011;25036;53.638;10.134;2022-10-31T05:06:53;24.60;;;18.33;;
39322;SDS011;25036;53.638;10.134;2022-10-31T05:07:54;25.30;;;18.27;;
39322;SDS011;25036;53.638;10.134;2022-10-31T05:08:54;27.42;;;18.40;;
39322;SDS011;25036;53.638;10.134;2022-10-31T05:09:54;27.77;;;17.77;;
39322;SDS011;25036;53.638;10.134;2022-10-31T05:10:54;27.07;;;17.00;;
39322;SDS011;25036;53.638;10.134;2022-10-31T05:11:54;24.43;;;16.73;;
39322;SDS011;25036;53.638;10.134;2022-10-31T05:12:56;25.73;;;16.85;;
39322;SDS011;25036;53.638;10.134;2022-10-31T05:13:56;23.75;;;16.83;;
39322;SDS011;25036;53.638;10.134;2022-10-31T05:14:56;32.07;;;16.37;;
39322;SDS011;25036;53.638;10.134;2022-10-31T05:15:56;30.47;;;17.77;;
39322;SDS011;25036;53.638;10.134;2022-10-31T05:16:57;27.08;;;18.45;;
39322;SDS011;25036;53.638;10.134;2022-10-31T05:17:57;23.20;;;17.00;;
39322;SDS011;25036;53.638;10.134;2022-10-31T05:18:57;28.08;;;18.30;;
39322;SDS011;25036;53.638;10.134;2022-10-31T05:19:57;23.75;;;17.20;;
39322;SDS011;25036;53.638;10.134;2022-10-31T05:20:57;30.20;;;16.73;;
39322;SDS011;25036;53.638;10.134;2022-10-31T05:21:57;26.70;;;16.73;;
39322;SDS011;25036;53.638;10.134;2022-10-31T05:22:58;27.33;;;15.97;;
39322;SDS011;25036;53.638;10.134;2022-10-31T05:23:58;23.98;;;16.85;;
39322;SDS011;25036;53.638;10.134;2022-10-31T05:24:58;25.33;;;17.23;;
39322;SDS011;25036;53.638;10.134;2022-10-31T05:25:58;21.37;;;16.27;;
39322;SDS011;25036;53.638;10.134;2022-10-31T05:26:58;21.00;;;17.03;;
39322;SDS011;25036;53.638;10.134;2022-10-31T05:27:58;26.57;;;17.67;;
39322;SDS011;25036;53.638;10.134;2022-10-31T05:28:59;21.40;;;14.03;;
39322;SDS011;25036;53.638;10.134;2022-10-31T05:29:59;23.10;;;16.07;;
39322;SDS011;25036;53.638;10.134;2022-10-31T05:30:59;29.73;;;17.40;;
39322;SDS011;25036;53.638;10.134;2022-10-31T05:31:59;26.63;;;16.38;;
39322;SDS011;25036;53.638;10.134;2022-10-31T05:32:59;29.80;;;17.50;;
39322;SDS011;25036;53.638;10.134;2022-10-31T05:33:59;24.58;;;17.15;;
39322;SDS011;25036;53.638;10.134;2022-10-31T05:35:00;27.75;;;16.85;;
39322;SDS011;25036;53.638;10.134;2022-10-31T05:36:00;31.33;;;17.63;;
39322;SDS011;25036;53.638;10.134;2022-10-31T05:37:00;26.23;;;17.50;;
39322;SDS011;25036;53.638;10.134;2022-10-31T05:38:00;26.60;;;18.00;;
39322;SDS011;25036;53.638;10.134;2022-10-31T05:39:00;29.05;;;17.75;;
39322;SDS011;25036;53.638;10.134;2022-10-31T05:40:04;27.33;;;18.00;;
39322;SDS011;25036;53.638;10.134;2022-10-31T05:41:04;22.85;;;16.40;;
39322;SDS011;25036;53.638;10.134;2022-10-31T05:42:05;25.17;;;17.60;;
39322;SDS011;25036;53.638;10.134;2022-10-31T05:43:05;28.20;;;17.90;;
39322;SDS011;25036;53.638;10.134;2022-10-31T05:44:05;27.73;;;18.27;;
39322;SDS011;25036;53.638;10.134;2022-10-31T05:45:06;26.87;;;17.87;;
39322;SDS011;25036;53.638;10.134;2022-10-31T05:46:06;21.75;;;16.40;;
39322;SDS011;25036;53.638;10.134;2022-10-31T05:47:06;23.37;;;17.70;;
39322;SDS011;25036;53.638;10.134;2022-10-31T05:48:07;26.80;;;17.57;;
39322;SDS011;25036;53.638;10.134;2022-10-31T05:49:08;27.33;;;17.23;;
39322;SDS011;25036;53.638;10.134;2022-10-31T05:50:08;24.37;;;15.60;;
39322;SDS011;25036;53.638;10.134;2022-10-31T05:51:08;26.00;;;17.38;;
39322;SDS011;25036;53.638;10.134;2022-10-31T05:52:09;21.43;;;16.50;;
39322;SDS011;25036;53.638;10.134;2022-10-31T05:53:09;25.17;;;17.20;;
39322;SDS011;25036;53.638;10.134;2022-10-31T05:54:09;27.55;;;18.10;;
39322;SDS011;25036;53.638;10.134;2022-10-31T05:55:09;23.67;;;17.60;;
39322;SDS011;25036;53.638;10.134;2022-10-31T05:56:09;24.58;;;16.52;;
39322;SDS011;25036;53.638;10.134;2022-10-31T05:57:09;25.73;;;17.60;;
39322;SDS011;25036;53.638;10.134;2022-10-31T05:58:10;26.10;;;17.33;;
39322;SDS011;25036;53.638;10.134;2022-10-31T05:59:10;26.98;;;17.27;;
39322;SDS011;25036;53.638;10.134;2022-10-31T06:00:10;24.77;;;17.70;;
39322;SDS011;25036;53.638;10.134;2022-10-31T06:01:11;25.15;;;17.65;;
39322;SDS011;25036;53.638;10.134;2022-10-31T06:02:11;28.80;;;18.07;;
39322;SDS011;25036;53.638;10.134;2022-10-31T06:03:11;25.80;;;17.53;;
39322;SDS011;25036;53.638;10.134;2022-10-31T06:04:11;24.27;;;16.77;;
39322;SDS011;25036;53.638;10.134;2022-10-31T06:05:11;25.92;;;16.58;;
39322;SDS011;25036;53.638;10.134;2022-10-31T06:06:12;26.38;;;16.98;;
39322;SDS011;25036;53.638;10.134;2022-10-31T06:07:12;23.67;;;16.13;;
39322;SDS011;25036;53.638;10.134;2022-10-31T06:08:12;23.87;;;16.67;;
39322;SDS011;25036;53.638;10.134;2022-10-31T06:09:12;23.07;;;17.57;;
39322;SDS011;25036;53.638;10.134;2022-10-31T06:10:12;26.08;;;16.65;;
39322;SDS011;25036;53.638;10.134;2022-10-31T06:11:13;24.60;;;17.02;;
39322;SDS011;25036;53.638;10.134;2022-10-31T06:12:13;27.53;;;15.77;;
39322;SDS011;25036;53.638;10.134;2022-10-31T06:13:13;25.03;;;17.17;;
39322;SDS011;25036;53.638;10.134;2022-10-31T06:14:13;24.15;;;16.48;;
39322;SDS011;25036;53.638;10.134;2022-10-31T06:15:13;21.97;;;15.50;;
39322;SDS011;25036;53.638;10.134;2022-10-31T06:16:13;27.58;;;17.00;;